sensor_id;sensor_type;location;lat;lon;timestamp;P1;durP1;ratioP1;P2;durP2;ratioP2
21330;SDS011;10824;51.632;4.950;2022-12-18T00:01:20;57.97;;;17.65;;
21330;SDS011;10824;51.632;4.950;2022-12-18T00:03:49;56.40;;;18.88;;
21330;SDS011;10824;51.632;4.950;2022-12-18T00:06:18;39.15;;;16.50;;
21330;SDS011;10824;51.632;4.950;2022-12-18T00:08:46;58.50;;;20.10;;
21330;SDS011;10824;51.632;4.950;2022-12-18T00:11:17;51.45;;;18.08;;
21330;SDS011;10824;51.632;4.950;2022-12-18T00:13:47;47.00;;;16.45;;
21330;SDS011;10824;51.632;4.950;2022-12-18T00:16:16;41.30;;;18.52;;
21330;SDS011;10824;51.632;4.950;2022-12-18T00:18:49;57.35;;;17.00;;
21330;SDS011;10824;51.632;4.950;2022-12-18T00:21:18;57.47;;;18.17;;
21330;SDS011;10824;51.632;4.950;2022-12-18T00:23:47;44.80;;;15.80;;
21330;SDS011;10824;51.632;4.950;2022-12-18T00:26:16;32.63;;;15.52;;
21330;SDS011;10824;51.632;4.950;2022-12-18T00:28:52;34.13;;;14.00;;
21330;SDS011;10824;51.632;4.950;2022-12-18T00:31:21;40.78;;;17.55;;
21330;SDS011;10824;51.632;4.950;2022-12-18T00:36:23;37.20;;;15.18;;
21330;SDS011;10824;51.632;4.950;2022-12-18T00:38:55;40.05;;;16.67;;
21330;SDS011;10824;51.632;4.950;2022-12-18T00:41:23;37.95;;;17.20;;
21330;SDS011;10824;51.632;4.950;2022-12-18T00:44:10;42.80;;;17.55;;
21330;SDS011;10824;51.632;4.950;2022-12-18T00:46:39;44.38;;;13.60;;
21330;SDS011;10824;51.632;4.950;2022-12-18T00:49:07;36.72;;;15.73;;
21330;SDS011;10824;51.632;4.950;2022-12-18T00:51:34;29.55;;;13.38;;
21330;SDS011;10824;51.632;4.950;2022-12-18T00:54:01;35.17;;;13.85;;
21330;SDS011;10824;51.632;4.950;2022-12-18T00:56:29;28.60;;;12.27;;
21330;SDS011;10824;51.632;4.950;2022-12-18T00:58:56;32.97;;;13.75;;
21330;SDS011;10824;51.632;4.950;2022-12-18T01:01:23;27.10;;;12.15;;
21330;SDS011;10824;51.632;4.950;2022-12-18T01:03:51;24.35;;;10.45;;
21330;SDS011;10824;51.632;4.950;2022-12-18T01:06:19;30.63;;;13.73;;
21330;SDS011;10824;51.632;4.950;2022-12-18T01:08:46;34.80;;;12.52;;
21330;SDS011;10824;51.632;4.950;2022-12-18T01:11:14;27.20;;;14.57;;
21330;SDS011;10824;51.632;4.950;2022-12-18T01:13:43;28.23;;;12.10;;
21330;SDS011;10824;51.632;4.950;2022-12-18T01:16:11;37.78;;;13.20;;
21330;SDS011;10824;51.632;4.950;2022-12-18T01:18:39;36.97;;;12.75;;
21330;SDS011;10824;51.632;4.950;2022-12-18T01:21:07;31.38;;;13.57;;
21330;SDS011;10824;51.632;4.950;2022-12-18T01:23:36;31.83;;;13.48;;
21330;SDS011;10824;51.632;4.950;2022-12-18T01:26:05;28.75;;;12.48;;
21330;SDS011;10824;51.632;4.950;2022-12-18T01:28:34;32.58;;;11.63;;
21330;SDS011;10824;51.632;4.950;2022-12-18T01:31:17;28.70;;;10.38;;
21330;SDS011;10824;51.632;4.950;2022-12-18T01:33:46;39.55;;;14.55;;
21330;SDS011;10824;51.632;4.950;2022-12-18T01:36:32;32.00;;;13.88;;
21330;SDS011;10824;51.632;4.950;2022-12-18T01:39:01;21.77;;;11.63;;
21330;SDS011;10824;51.632;4.950;2022-12-18T01:41:40;29.55;;;14.50;;
21330;SDS011;10824;51.632;4.950;2022-12-18T01:50:09;36.88;;;13.05;;
21330;SDS011;10824;51.632;4.950;2022-12-18T01:52:37;27.85;;;13.20;;
21330;SDS011;10824;51.632;4.950;2022-12-18T01:55:07;24.95;;;10.27;;
21330;SDS011;10824;51.632;4.950;2022-12-18T01:57:35;30.35;;;12.20;;
21330;SDS011;10824;51.632;4.950;2022-12-18T02:00:11;26.77;;;13.35;;
21330;SDS011;10824;51.632;4.950;2022-12-18T02:02:44;23.33;;;9.18;;
21330;SDS011;10824;51.632;4.950;2022-12-18T02:05:13;33.38;;;12.02;;
21330;SDS011;10824;51.632;4.950;2022-12-18T02:08:07;20.52;;;10.38;;
21330;SDS011;10824;51.632;4.950;2022-12-18T02:10:57;24.73;;;10.82;;
21330;SDS011;10824;51.632;4.950;2022-12-18T02:16:21;20.52;;;11.15;;
21330;SDS011;10824;51.632;4.950;2022-12-18T02:19:14;22.48;;;10.52;;
21330;SDS011;10824;51.632;4.950;2022-12-18T02:24:54;18.20;;;8.35;;
21330;SDS011;10824;51.632;4.950;2022-12-18T02:27:26;24.70;;;11.75;;
21330;SDS011;10824;51.632;4.950;2022-12-18T02:29:57;25.92;;;10.43;;
21330;SDS011;10824;51.632;4.950;2022-12-18T02:32:28;24.83;;;8.95;;
21330;SDS011;10824;51.632;4.950;2022-12-18T02:35:06;69.18;;;12.52;;
21330;SDS011;10824;51.632;4.950;2022-12-18T02:37:36;26.13;;;11.63;;
21330;SDS011;10824;51.632;4.950;2022-12-18T02:40:06;21.92;;;10.30;;
21330;SDS011;10824;51.632;4.950;2022-12-18T02:42:36;26.27;;;13.40;;
21330;SDS011;10824;51.632;4.950;2022-12-18T02:45:05;18.63;;;8.13;;
21330;SDS011;10824;51.632;4.950;2022-12-18T02:47:36;23.15;;;11.70;;
21330;SDS011;10824;51.632;4.950;2022-12-18T02:50:34;20.67;;;9.57;;
21330;SDS011;10824;51.632;4.950;2022-12-18T03:01:30;16.85;;;9.98;;
21330;SDS011;10824;51.632;4.950;2022-12-18T03:04:47;24.90;;;11.35;;
21330;SDS011;10824;51.632;4.950;2022-12-18T03:06:57;23.00;;;8.80;;
21330;SDS011;10824;51.632;4.950;2022-12-18T03:09:30;23.52;;;8.75;;
21330;SDS011;10824;51.632;4.950;2022-12-18T03:12:07;21.00;;;7.82;;
21330;SDS011;10824;51.632;4.950;2022-12-18T03:14:55;16.23;;;8.18;;
21330;SDS011;10824;51.632;4.950;2022-12-18T03:17:34;18.58;;;9.63;;
21330;SDS011;10824;51.632;4.950;2022-12-18T03:20:04;19.45;;;10.20;;
21330;SDS011;10824;51.632;4.950;2022-12-18T03:22:36;17.23;;;9.57;;
21330;SDS011;10824;51.632;4.950;2022-12-18T03:25:06;17.98;;;8.77;;
21330;SDS011;10824;51.632;4.950;2022-12-18T03:27:38;20.67;;;7.93;;
21330;SDS011;10824;51.632;4.950;2022-12-18T03:30:12;17.77;;;8.57;;
21330;SDS011;10824;51.632;4.950;2022-12-18T03:35:16;12.32;;;7.43;;
21330;SDS011;10824;51.632;4.950;2022-12-18T03:37:48;17.60;;;6.88;;
21330;SDS011;10824;51.632;4.950;2022-12-18T03:40:16;17.52;;;7.82;;
21330;SDS011;10824;51.632;4.950;2022-12-18T03:42:45;19.50;;;7.43;;
21330;SDS011;10824;51.632;4.950;2022-12-18T03:45:20;21.63;;;9.93;;
21330;SDS011;10824;51.632;4.950;2022-12-18T03:48:00;20.30;;;8.90;;
21330;SDS011;10824;51.632;4.950;2022-12-18T03:51:13;13.38;;;8.93;;
21330;SDS011;10824;51.632;4.950;2022-12-18T03:53:45;24.08;;;7.60;;
21330;SDS011;10824;51.632;4.950;2022-12-18T03:56:14;15.38;;;6.38;;
21330;SDS011;10824;51.632;4.950;2022-12-18T03:58:43;26.67;;;9.25;;
21330;SDS011;10824;51.632;4.950;2022-12-18T04:01:16;19.60;;;7.75;;
21330;SDS011;10824;51.632;4.950;2022-12-18T04:03:45;14.13;;;6.85;;
21330;SDS011;10824;51.632;4.950;2022-12-18T04:06:17;15.73;;;7.85;;
21330;SDS011;10824;51.632;4.950;2022-12-18T04:08:45;16.33;;;9.43;;
21330;SDS011;10824;51.632;4.950;2022-12-18T04:11:16;14.25;;;6.32;;
21330;SDS011;10824;51.632;4.950;2022-12-18T04:13:45;20.70;;;9.93;;
21330;SDS011;10824;51.632;4.950;2022-12-18T04:16:20;16.15;;;7.20;;
21330;SDS011;10824;51.632;4.950;2022-12-18T04:18:51;19.50;;;7.78;;
21330;SDS011;10824;51.632;4.950;2022-12-18T04:21:20;17.17;;;8.05;;
21330;SDS011;10824;51.632;4.950;2022-12-18T04:23:49;13.95;;;6.50;;
21330;SDS011;10824;51.632;4.950;2022-12-18T04:26:19;18.00;;;8.10;;
21330;SDS011;10824;51.632;4.950;2022-12-18T04:28:59;18.52;;;7.10;;
21330;SDS011;10824;51.632;4.950;2022-12-18T04:31:27;20.88;;;9.13;;
21330;SDS011;10824;51.632;4.950;2022-12-18T04:33:55;8.13;;;4.85;;
21330;SDS011;10824;51.632;4.950;2022-12-18T04:36:22;18.27;;;6.65;;
21330;SDS011;10824;51.632;4.950;2022-12-18T04:38:49;12.00;;;5.32;;
21330;SDS011;10824;51.632;4.950;2022-12-18T04:41:17;14.65;;;5.63;;
21330;SDS011;10824;51.632;4.950;2022-12-18T04:43:46;12.77;;;7.75;;
21330;SDS011;10824;51.632;4.950;2022-12-18T04:46:13;15.95;;;6.88;;
21330;SDS011;10824;51.632;4.950;2022-12-18T04:48:40;12.93;;;6.25;;
21330;SDS011;10824;51.632;4.950;2022-12-18T04:51:07;13.05;;;6.75;;
21330;SDS011;10824;51.632;4.950;2022-12-18T04:53:34;14.50;;;5.43;;
21330;SDS011;10824;51.632;4.950;2022-12-18T04:56:05;16.55;;;8.60;;
21330;SDS011;10824;51.632;4.950;2022-12-18T04:58:35;15.35;;;7.28;;
21330;SDS011;10824;51.632;4.950;2022-12-18T05:01:03;13.38;;;6.57;;
21330;SDS011;10824;51.632;4.950;2022-12-18T05:03:30;16.33;;;7.60;;
21330;SDS011;10824;51.632;4.950;2022-12-18T05:05:57;12.45;;;6.78;;
21330;SDS011;10824;51.632;4.950;2022-12-18T05:08:24;16.88;;;8.40;;
21330;SDS011;10824;51.632;4.950;2022-12-18T05:10:58;12.48;;;5.93;;
21330;SDS011;10824;51.632;4.950;2022-12-18T05:13:31;15.05;;;6.70;;
21330;SDS011;10824;51.632;4.950;2022-12-18T05:15:58;9.73;;;5.85;;
21330;SDS011;10824;51.632;4.950;2022-12-18T05:18:26;13.23;;;5.40;;
21330;SDS011;10824;51.632;4.950;2022-12-18T05:20:53;13.52;;;5.05;;
21330;SDS011;10824;51.632;4.950;2022-12-18T05:23:21;21.25;;;4.80;;
21330;SDS011;10824;51.632;4.950;2022-12-18T05:25:53;18.33;;;6.43;;
21330;SDS011;10824;51.632;4.950;2022-12-18T05:28:21;8.35;;;4.57;;
21330;SDS011;10824;51.632;4.950;2022-12-18T05:30:50;22.80;;;5.70;;
21330;SDS011;10824;51.632;4.950;2022-12-18T05:33:18;13.40;;;6.85;;
21330;SDS011;10824;51.632;4.950;2022-12-18T05:36:06;13.82;;;6.05;;
21330;SDS011;10824;51.632;4.950;2022-12-18T05:38:34;10.63;;;6.03;;
21330;SDS011;10824;51.632;4.950;2022-12-18T05:41:03;19.20;;;5.65;;
21330;SDS011;10824;51.632;4.950;2022-12-18T05:43:30;17.58;;;6.05;;
21330;SDS011;10824;51.632;4.950;2022-12-18T05:45:57;26.83;;;8.38;;
21330;SDS011;10824;51.632;4.950;2022-12-18T05:48:24;15.93;;;5.00;;
21330;SDS011;10824;51.632;4.950;2022-12-18T05:50:51;9.05;;;4.43;;
21330;SDS011;10824;51.632;4.950;2022-12-18T05:53:19;9.40;;;4.70;;
21330;SDS011;10824;51.632;4.950;2022-12-18T05:55:47;7.53;;;4.47;;
21330;SDS011;10824;51.632;4.950;2022-12-18T05:58:14;14.40;;;5.78;;
21330;SDS011;10824;51.632;4.950;2022-12-18T06:00:42;8.10;;;5.32;;
21330;SDS011;10824;51.632;4.950;2022-12-18T06:03:11;8.85;;;5.00;;
21330;SDS011;10824;51.632;4.950;2022-12-18T06:05:40;12.88;;;4.82;;
21330;SDS011;10824;51.632;4.950;2022-12-18T06:08:08;13.52;;;6.70;;
21330;SDS011;10824;51.632;4.950;2022-12-18T06:10:36;11.68;;;5.65;;
21330;SDS011;10824;51.632;4.950;2022-12-18T06:13:04;10.73;;;5.65;;
21330;SDS011;10824;51.632;4.950;2022-12-18T06:15:32;14.88;;;6.53;;
21330;SDS011;10824;51.632;4.950;2022-12-18T06:18:00;12.32;;;4.90;;
21330;SDS011;10824;51.632;4.950;2022-12-18T06:20:27;8.68;;;4.68;;
21330;SDS011;10824;51.632;4.950;2022-12-18T06:22:59;10.68;;;5.32;;
21330;SDS011;10824;51.632;4.950;2022-12-18T06:25:26;7.68;;;4.55;;
21330;SDS011;10824;51.632;4.950;2022-12-18T06:27:53;13.85;;;6.93;;
21330;SDS011;10824;51.632;4.950;2022-12-18T06:30:20;10.35;;;5.63;;
21330;SDS011;10824;51.632;4.950;2022-12-18T06:32:48;9.43;;;5.65;;
21330;SDS011;10824;51.632;4.950;2022-12-18T06:35:21;11.05;;;4.43;;
21330;SDS011;10824;51.632;4.950;2022-12-18T06:37:48;14.30;;;5.45;;
21330;SDS011;10824;51.632;4.950;2022-12-18T06:40:16;15.32;;;5.63;;
21330;SDS011;10824;51.632;4.950;2022-12-18T06:42:42;11.45;;;5.10;;
21330;SDS011;10824;51.632;4.950;2022-12-18T06:45:09;8.35;;;4.43;;
21330;SDS011;10824;51.632;4.950;2022-12-18T06:47:37;19.90;;;5.95;;
21330;SDS011;10824;51.632;4.950;2022-12-18T06:50:04;12.18;;;5.32;;
21330;SDS011;10824;51.632;4.950;2022-12-18T06:52:32;8.27;;;5.47;;
21330;SDS011;10824;51.632;4.950;2022-12-18T06:54:59;11.70;;;5.22;;
21330;SDS011;10824;51.632;4.950;2022-12-18T06:57:26;8.43;;;5.55;;
21330;SDS011;10824;51.632;4.950;2022-12-18T06:59:53;12.23;;;5.50;;
21330;SDS011;10824;51.632;4.950;2022-12-18T07:02:20;14.43;;;5.32;;
21330;SDS011;10824;51.632;4.950;2022-12-18T07:04:47;11.35;;;5.82;;
21330;SDS011;10824;51.632;4.950;2022-12-18T07:07:15;7.82;;;5.05;;
21330;SDS011;10824;51.632;4.950;2022-12-18T07:09:42;18.33;;;4.28;;
21330;SDS011;10824;51.632;4.950;2022-12-18T07:12:09;12.88;;;6.80;;
21330;SDS011;10824;51.632;4.950;2022-12-18T07:14:36;9.57;;;3.95;;
21330;SDS011;10824;51.632;4.950;2022-12-18T07:17:03;8.95;;;4.68;;
21330;SDS011;10824;51.632;4.950;2022-12-18T07:19:31;13.07;;;5.70;;
21330;SDS011;10824;51.632;4.950;2022-12-18T07:21:58;9.07;;;5.10;;
21330;SDS011;10824;51.632;4.950;2022-12-18T07:24:26;13.68;;;6.22;;
21330;SDS011;10824;51.632;4.950;2022-12-18T07:26:56;11.65;;;5.05;;
21330;SDS011;10824;51.632;4.950;2022-12-18T07:29:23;9.02;;;4.20;;
21330;SDS011;10824;51.632;4.950;2022-12-18T07:31:50;8.90;;;5.00;;
21330;SDS011;10824;51.632;4.950;2022-12-18T07:34:17;7.45;;;5.47;;
21330;SDS011;10824;51.632;4.950;2022-12-18T07:36:44;8.05;;;3.50;;
21330;SDS011;10824;51.632;4.950;2022-12-18T07:39:11;13.00;;;4.80;;
21330;SDS011;10824;51.632;4.950;2022-12-18T07:41:38;12.93;;;4.60;;
21330;SDS011;10824;51.632;4.950;2022-12-18T07:44:14;15.00;;;6.32;;
21330;SDS011;10824;51.632;4.950;2022-12-18T07:46:41;10.00;;;4.15;;
21330;SDS011;10824;51.632;4.950;2022-12-18T07:49:08;7.45;;;3.97;;
21330;SDS011;10824;51.632;4.950;2022-12-18T07:51:35;8.57;;;5.07;;
21330;SDS011;10824;51.632;4.950;2022-12-18T07:54:02;12.52;;;5.88;;
21330;SDS011;10824;51.632;4.950;2022-12-18T07:56:29;7.43;;;4.15;;
21330;SDS011;10824;51.632;4.950;2022-12-18T07:58:57;11.63;;;5.45;;
21330;SDS011;10824;51.632;4.950;2022-12-18T08:01:25;9.82;;;5.40;;
21330;SDS011;10824;51.632;4.950;2022-12-18T08:03:53;8.70;;;5.72;;
21330;SDS011;10824;51.632;4.950;2022-12-18T08:06:20;10.40;;;5.35;;
21330;SDS011;10824;51.632;4.950;2022-12-18T08:08:53;10.05;;;5.88;;
21330;SDS011;10824;51.632;4.950;2022-12-18T08:11:21;8.95;;;5.28;;
21330;SDS011;10824;51.632;4.950;2022-12-18T08:13:49;18.70;;;5.00;;
21330;SDS011;10824;51.632;4.950;2022-12-18T08:16:17;12.43;;;6.50;;
21330;SDS011;10824;51.632;4.950;2022-12-18T08:18:46;9.13;;;5.32;;
21330;SDS011;10824;51.632;4.950;2022-12-18T08:21:19;8.90;;;4.28;;
21330;SDS011;10824;51.632;4.950;2022-12-18T08:23:49;11.23;;;4.50;;
21330;SDS011;10824;51.632;4.950;2022-12-18T08:26:18;14.02;;;6.93;;
21330;SDS011;10824;51.632;4.950;2022-12-18T08:28:47;14.20;;;4.68;;
21330;SDS011;10824;51.632;4.950;2022-12-18T08:31:16;9.27;;;4.38;;
21330;SDS011;10824;51.632;4.950;2022-12-18T08:33:44;13.48;;;6.07;;
21330;SDS011;10824;51.632;4.950;2022-12-18T08:36:12;13.63;;;4.70;;
21330;SDS011;10824;51.632;4.950;2022-12-18T08:38:39;15.63;;;6.00;;
21330;SDS011;10824;51.632;4.950;2022-12-18T08:41:08;8.70;;;5.05;;
21330;SDS011;10824;51.632;4.950;2022-12-18T08:43:37;14.38;;;6.28;;
21330;SDS011;10824;51.632;4.950;2022-12-18T08:46:24;7.05;;;4.32;;
21330;SDS011;10824;51.632;4.950;2022-12-18T08:48:57;12.10;;;5.72;;
21330;SDS011;10824;51.632;4.950;2022-12-18T08:51:24;8.63;;;5.45;;
21330;SDS011;10824;51.632;4.950;2022-12-18T08:53:51;9.65;;;3.92;;
21330;SDS011;10824;51.632;4.950;2022-12-18T08:56:18;11.73;;;6.50;;
21330;SDS011;10824;51.632;4.950;2022-12-18T08:58:45;15.35;;;6.80;;
21330;SDS011;10824;51.632;4.950;2022-12-18T09:01:12;9.88;;;5.68;;
21330;SDS011;10824;51.632;4.950;2022-12-18T09:03:43;10.20;;;3.97;;
21330;SDS011;10824;51.632;4.950;2022-12-18T09:06:18;13.70;;;5.82;;
21330;SDS011;10824;51.632;4.950;2022-12-18T09:11:15;9.50;;;4.07;;
21330;SDS011;10824;51.632;4.950;2022-12-18T09:13:47;10.23;;;4.68;;
21330;SDS011;10824;51.632;4.950;2022-12-18T09:16:14;14.93;;;6.57;;
21330;SDS011;10824;51.632;4.950;2022-12-18T09:18:41;10.00;;;4.18;;
21330;SDS011;10824;51.632;4.950;2022-12-18T09:21:10;16.00;;;6.45;;
21330;SDS011;10824;51.632;4.950;2022-12-18T09:23:38;10.27;;;4.90;;
21330;SDS011;10824;51.632;4.950;2022-12-18T09:26:05;14.02;;;5.95;;
21330;SDS011;10824;51.632;4.950;2022-12-18T09:28:32;10.93;;;4.28;;
21330;SDS011;10824;51.632;4.950;2022-12-18T09:31:02;8.60;;;4.13;;
21330;SDS011;10824;51.632;4.950;2022-12-18T09:33:33;20.45;;;6.90;;
21330;SDS011;10824;51.632;4.950;2022-12-18T09:36:05;9.27;;;4.78;;
21330;SDS011;10824;51.632;4.950;2022-12-18T09:38:35;13.20;;;6.75;;
21330;SDS011;10824;51.632;4.950;2022-12-18T09:46:46;6.63;;;4.18;;
21330;SDS011;10824;51.632;4.950;2022-12-18T09:49:20;10.40;;;6.13;;
21330;SDS011;10824;51.632;4.950;2022-12-18T09:52:00;13.00;;;4.97;;
21330;SDS011;10824;51.632;4.950;2022-12-18T09:54:36;13.45;;;5.95;;
21330;SDS011;10824;51.632;4.950;2022-12-18T09:57:06;10.32;;;4.40;;
21330;SDS011;10824;51.632;4.950;2022-12-18T09:59:46;13.10;;;5.90;;
21330;SDS011;10824;51.632;4.950;2022-12-18T10:02:23;12.13;;;6.20;;
21330;SDS011;10824;51.632;4.950;2022-12-18T10:04:59;10.25;;;5.63;;
21330;SDS011;10824;51.632;4.950;2022-12-18T10:07:40;9.23;;;6.32;;
21330;SDS011;10824;51.632;4.950;2022-12-18T10:10:19;13.20;;;6.07;;
21330;SDS011;10824;51.632;4.950;2022-12-18T10:15:47;13.10;;;6.00;;
21330;SDS011;10824;51.632;4.950;2022-12-18T10:18:33;13.20;;;5.97;;
21330;SDS011;10824;51.632;4.950;2022-12-18T10:21:24;9.98;;;5.38;;
21330;SDS011;10824;51.632;4.950;2022-12-18T10:26:48;10.60;;;6.13;;
21330;SDS011;10824;51.632;4.950;2022-12-18T10:29:15;9.30;;;4.93;;
21330;SDS011;10824;51.632;4.950;2022-12-18T10:31:43;12.98;;;5.68;;
21330;SDS011;10824;51.632;4.950;2022-12-18T10:34:10;14.90;;;6.50;;
21330;SDS011;10824;51.632;4.950;2022-12-18T10:36:41;10.00;;;5.65;;
21330;SDS011;10824;51.632;4.950;2022-12-18T10:39:15;10.10;;;5.78;;
21330;SDS011;10824;51.632;4.950;2022-12-18T10:41:51;12.40;;;5.57;;
21330;SDS011;10824;51.632;4.950;2022-12-18T10:44:19;13.55;;;5.82;;
21330;SDS011;10824;51.632;4.950;2022-12-18T10:46:49;10.57;;;7.53;;
21330;SDS011;10824;51.632;4.950;2022-12-18T10:49:36;15.73;;;7.53;;
21330;SDS011;10824;51.632;4.950;2022-12-18T10:55:02;13.40;;;5.35;;
21330;SDS011;10824;51.632;4.950;2022-12-18T11:00:20;10.95;;;7.15;;
21330;SDS011;10824;51.632;4.950;2022-12-18T11:02:55;10.55;;;5.32;;
21330;SDS011;10824;51.632;4.950;2022-12-18T11:05:30;15.70;;;6.82;;
21330;SDS011;10824;51.632;4.950;2022-12-18T11:07:59;11.25;;;6.70;;
21330;SDS011;10824;51.632;4.950;2022-12-18T11:10:37;14.88;;;5.10;;
21330;SDS011;10824;51.632;4.950;2022-12-18T11:13:23;20.73;;;5.88;;
21330;SDS011;10824;51.632;4.950;2022-12-18T11:15:52;16.00;;;6.68;;
21330;SDS011;10824;51.632;4.950;2022-12-18T11:20:56;10.98;;;4.78;;
21330;SDS011;10824;51.632;4.950;2022-12-18T11:23:27;17.15;;;6.20;;
21330;SDS011;10824;51.632;4.950;2022-12-18T11:25:59;10.82;;;6.32;;
21330;SDS011;10824;51.632;4.950;2022-12-18T11:31:28;8.55;;;5.22;;
21330;SDS011;10824;51.632;4.950;2022-12-18T11:36:47;11.52;;;5.57;;
21330;SDS011;10824;51.632;4.950;2022-12-18T11:39:24;11.80;;;6.38;;
21330;SDS011;10824;51.632;4.950;2022-12-18T11:42:01;7.45;;;4.35;;
21330;SDS011;10824;51.632;4.950;2022-12-18T11:44:45;14.02;;;6.03;;
21330;SDS011;10824;51.632;4.950;2022-12-18T11:50:12;10.10;;;5.15;;
21330;SDS011;10824;51.632;4.950;2022-12-18T11:52:51;13.60;;;4.57;;
21330;SDS011;10824;51.632;4.950;2022-12-18T11:55:31;10.27;;;5.55;;
21330;SDS011;10824;51.632;4.950;2022-12-18T12:03:59;14.75;;;6.35;;
21330;SDS011;10824;51.632;4.950;2022-12-18T12:21:21;13.45;;;5.90;;
21330;SDS011;10824;51.632;4.950;2022-12-18T12:27:02;15.35;;;6.05;;
21330;SDS011;10824;51.632;4.950;2022-12-18T12:40:18;15.85;;;5.65;;
21330;SDS011;10824;51.632;4.950;2022-12-18T12:46:04;15.07;;;6.38;;
21330;SDS011;10824;51.632;4.950;2022-12-18T12:51:34;16.73;;;7.75;;
21330;SDS011;10824;51.632;4.950;2022-12-18T12:54:05;21.52;;;7.50;;
21330;SDS011;10824;51.632;4.950;2022-12-18T12:59:47;11.52;;;5.80;;
21330;SDS011;10824;51.632;4.950;2022-12-18T13:02:44;16.10;;;6.72;;
21330;SDS011;10824;51.632;4.950;2022-12-18T13:08:24;17.03;;;7.57;;
21330;SDS011;10824;51.632;4.950;2022-12-18T13:11:00;18.23;;;8.02;;
21330;SDS011;10824;51.632;4.950;2022-12-18T13:13:51;12.90;;;7.30;;
21330;SDS011;10824;51.632;4.950;2022-12-18T13:16:21;14.00;;;5.43;;
21330;SDS011;10824;51.632;4.950;2022-12-18T13:18:54;20.50;;;9.55;;
21330;SDS011;10824;51.632;4.950;2022-12-18T13:21:30;18.25;;;8.70;;
21330;SDS011;10824;51.632;4.950;2022-12-18T13:24:14;12.25;;;5.88;;
21330;SDS011;10824;51.632;4.950;2022-12-18T13:26:50;13.23;;;6.35;;
21330;SDS011;10824;51.632;4.950;2022-12-18T13:32:24;15.55;;;8.63;;
21330;SDS011;10824;51.632;4.950;2022-12-18T13:37:51;12.13;;;6.57;;
21330;SDS011;10824;51.632;4.950;2022-12-18T13:48:26;11.43;;;6.75;;
21330;SDS011;10824;51.632;4.950;2022-12-18T13:50:59;12.05;;;5.93;;
21330;SDS011;10824;51.632;4.950;2022-12-18T13:53:43;15.05;;;6.45;;
21330;SDS011;10824;51.632;4.950;2022-12-18T13:56:17;15.00;;;6.93;;
21330;SDS011;10824;51.632;4.950;2022-12-18T14:01:35;15.30;;;5.80;;
21330;SDS011;10824;51.632;4.950;2022-12-18T14:04:36;9.88;;;5.93;;
21330;SDS011;10824;51.632;4.950;2022-12-18T14:10:11;12.80;;;5.55;;
21330;SDS011;10824;51.632;4.950;2022-12-18T14:13:05;14.70;;;5.93;;
21330;SDS011;10824;51.632;4.950;2022-12-18T14:18:17;14.80;;;6.47;;
21330;SDS011;10824;51.632;4.950;2022-12-18T14:20:46;14.95;;;5.03;;
21330;SDS011;10824;51.632;4.950;2022-12-18T14:28:57;17.60;;;7.47;;
21330;SDS011;10824;51.632;4.950;2022-12-18T14:31:28;15.30;;;6.00;;
21330;SDS011;10824;51.632;4.950;2022-12-18T14:33:56;23.20;;;10.07;;
21330;SDS011;10824;51.632;4.950;2022-12-18T14:36:24;14.98;;;8.75;;
21330;SDS011;10824;51.632;4.950;2022-12-18T14:38:56;18.20;;;7.45;;
21330;SDS011;10824;51.632;4.950;2022-12-18T14:41:24;17.00;;;9.07;;
21330;SDS011;10824;51.632;4.950;2022-12-18T14:43:52;11.63;;;5.85;;
21330;SDS011;10824;51.632;4.950;2022-12-18T14:49:37;13.85;;;6.50;;
21330;SDS011;10824;51.632;4.950;2022-12-18T14:52:05;14.32;;;7.03;;
21330;SDS011;10824;51.632;4.950;2022-12-18T14:54:39;13.38;;;6.95;;
21330;SDS011;10824;51.632;4.950;2022-12-18T14:57:25;13.65;;;4.72;;
21330;SDS011;10824;51.632;4.950;2022-12-18T15:00:05;11.90;;;6.68;;
21330;SDS011;10824;51.632;4.950;2022-12-18T15:02:40;18.45;;;6.55;;
21330;SDS011;10824;51.632;4.950;2022-12-18T15:07:43;10.73;;;6.18;;
21330;SDS011;10824;51.632;4.950;2022-12-18T15:10:20;14.60;;;6.90;;
21330;SDS011;10824;51.632;4.950;2022-12-18T15:12:49;12.13;;;6.82;;
21330;SDS011;10824;51.632;4.950;2022-12-18T15:20:41;15.65;;;5.75;;
21330;SDS011;10824;51.632;4.950;2022-12-18T15:23:13;9.63;;;5.85;;
21330;SDS011;10824;51.632;4.950;2022-12-18T15:25:42;15.47;;;6.60;;
21330;SDS011;10824;51.632;4.950;2022-12-18T15:28:17;15.68;;;8.98;;
21330;SDS011;10824;51.632;4.950;2022-12-18T15:33:31;15.90;;;6.80;;
21330;SDS011;10824;51.632;4.950;2022-12-18T15:36:02;13.10;;;6.35;;
21330;SDS011;10824;51.632;4.950;2022-12-18T15:38:31;11.47;;;5.23;;
21330;SDS011;10824;51.632;4.950;2022-12-18T15:40:58;13.50;;;7.75;;
21330;SDS011;10824;51.632;4.950;2022-12-18T15:43:27;12.98;;;6.47;;
21330;SDS011;10824;51.632;4.950;2022-12-18T15:46:01;10.55;;;5.95;;
21330;SDS011;10824;51.632;4.950;2022-12-18T15:48:28;18.27;;;7.72;;
21330;SDS011;10824;51.632;4.950;2022-12-18T15:50:56;17.35;;;6.97;;
21330;SDS011;10824;51.632;4.950;2022-12-18T15:53:25;14.50;;;7.05;;
21330;SDS011;10824;51.632;4.950;2022-12-18T15:58:42;12.75;;;5.30;;
21330;SDS011;10824;51.632;4.950;2022-12-18T16:01:11;12.18;;;6.15;;
21330;SDS011;10824;51.632;4.950;2022-12-18T16:03:39;16.33;;;7.18;;
21330;SDS011;10824;51.632;4.950;2022-12-18T16:06:07;14.77;;;7.45;;
21330;SDS011;10824;51.632;4.950;2022-12-18T16:08:35;21.73;;;9.18;;
21330;SDS011;10824;51.632;4.950;2022-12-18T16:11:04;14.60;;;8.13;;
21330;SDS011;10824;51.632;4.950;2022-12-18T16:13:35;15.30;;;7.60;;
21330;SDS011;10824;51.632;4.950;2022-12-18T16:16:02;19.45;;;7.75;;
21330;SDS011;10824;51.632;4.950;2022-12-18T16:18:29;14.18;;;7.45;;
21330;SDS011;10824;51.632;4.950;2022-12-18T16:20:56;12.63;;;7.28;;
21330;SDS011;10824;51.632;4.950;2022-12-18T16:23:24;12.75;;;8.63;;
21330;SDS011;10824;51.632;4.950;2022-12-18T16:25:51;15.70;;;6.75;;
21330;SDS011;10824;51.632;4.950;2022-12-18T16:28:18;13.00;;;7.50;;
21330;SDS011;10824;51.632;4.950;2022-12-18T16:30:45;12.30;;;6.95;;
21330;SDS011;10824;51.632;4.950;2022-12-18T16:33:12;18.92;;;8.48;;
21330;SDS011;10824;51.632;4.950;2022-12-18T16:35:39;16.90;;;6.75;;
21330;SDS011;10824;51.632;4.950;2022-12-18T16:38:08;16.20;;;7.25;;
21330;SDS011;10824;51.632;4.950;2022-12-18T16:40:35;15.23;;;8.35;;
21330;SDS011;10824;51.632;4.950;2022-12-18T16:43:24;18.95;;;7.63;;
21330;SDS011;10824;51.632;4.950;2022-12-18T16:45:51;16.15;;;7.57;;
21330;SDS011;10824;51.632;4.950;2022-12-18T16:48:18;22.95;;;7.43;;
21330;SDS011;10824;51.632;4.950;2022-12-18T16:50:45;20.35;;;8.10;;
21330;SDS011;10824;51.632;4.950;2022-12-18T16:53:12;11.55;;;5.82;;
21330;SDS011;10824;51.632;4.950;2022-12-18T16:55:39;14.73;;;7.95;;
21330;SDS011;10824;51.632;4.950;2022-12-18T16:58:09;18.80;;;7.63;;
21330;SDS011;10824;51.632;4.950;2022-12-18T17:00:37;15.77;;;8.13;;
21330;SDS011;10824;51.632;4.950;2022-12-18T17:03:04;12.70;;;7.18;;
21330;SDS011;10824;51.632;4.950;2022-12-18T17:05:33;15.00;;;7.35;;
21330;SDS011;10824;51.632;4.950;2022-12-18T17:08:00;13.63;;;7.63;;
21330;SDS011;10824;51.632;4.950;2022-12-18T17:10:26;12.93;;;6.63;;
21330;SDS011;10824;51.632;4.950;2022-12-18T17:12:54;15.77;;;7.38;;
21330;SDS011;10824;51.632;4.950;2022-12-18T17:15:21;13.38;;;6.88;;
21330;SDS011;10824;51.632;4.950;2022-12-18T17:17:48;20.33;;;8.90;;
21330;SDS011;10824;51.632;4.950;2022-12-18T17:20:15;14.07;;;7.38;;
21330;SDS011;10824;51.632;4.950;2022-12-18T17:22:44;16.42;;;7.03;;
21330;SDS011;10824;51.632;4.950;2022-12-18T17:25:11;18.73;;;8.15;;